Time;durP1;ratioP1;P1;durP2;ratioP2;P2;SDS_P1;SDS_P2;PMS_P1;PMS_P2;Temp;Humidity;BMP_temperature;BMP_pressure;BME280_temperature;BME280_humidity;BME280_pressure;Samples;Min_cycle;Max_cycle;Signal;HPM_P1;HPM_P2
2022/12/19 00:00:17;;;;;;;74.10;30.83;;;;;;;1.62;56.33;100877.34;4335180;33;20091;-94
2022/12/19 00:02:43;;;;;;;70.93;29.73;;;;;;;1.54;56.59;100879.81;4334204;33;20154;-94
2022/12/19 00:05:08;;;;;;;72.55;31.08;;;;;;;1.56;56.57;100872.94;4335400;33;20100;-92
2022/12/19 00:07:34;;;;;;;74.07;30.30;;;;;;;1.53;56.57;100875.50;4335459;33;20145;-91
2022/12/19 00:09:59;;;;;;;64.70;28.55;;;;;;;1.55;56.61;100884.19;4321933;33;20099;-91
2022/12/19 00:12:24;;;;;;;65.30;28.17;;;;;;;1.58;56.59;100894.59;4335234;33;20100;-89
2022/12/19 00:14:50;;;;;;;68.68;28.73;;;;;;;1.34;56.82;100893.38;4321808;33;20099;-89
2022/12/19 00:17:16;;;;;;;67.25;27.83;;;;;;;1.45;56.75;100885.75;4335268;33;20091;-89
2022/12/19 00:19:41;;;;;;;69.78;29.12;;;;;;;1.37;56.83;100880.44;4321858;33;20106;-89
2022/12/19 00:22:06;;;;;;;62.70;26.75;;;;;;;1.38;56.86;100892.56;4335164;33;20108;-90
2022/12/19 00:24:32;;;;;;;65.45;29.48;;;;;;;1.49;56.67;100886.69;4335356;33;20092;-91
2022/12/19 00:26:57;;;;;;;69.62;28.75;;;;;;;1.55;56.27;100882.47;4335106;33;20111;-91
2022/12/19 00:29:23;;;;;;;63.75;27.30;;;;;;;1.53;56.12;100885.88;4335255;33;20115;-90
2022/12/19 00:31:48;;;;;;;65.60;28.33;;;;;;;1.51;56.09;100885.00;4335038;33;20123;-90
2022/12/19 00:34:14;;;;;;;60.47;27.92;;;;;;;1.53;56.07;100886.75;4335152;33;20443;-90
2022/12/19 00:36:39;;;;;;;64.68;27.08;;;;;;;1.52;56.04;100886.72;4335238;33;20118;-91
2022/12/19 00:39:05;;;;;;;66.28;26.50;;;;;;;1.51;56.08;100887.59;4321800;33;20424;-91
2022/12/19 00:41:33;;;;;;;64.53;27.67;;;;;;;1.37;55.97;100888.22;4321643;33;20111;-90
2022/12/19 00:44:07;;;;;;;61.35;26.12;;;;;;;1.23;56.10;100894.91;4333929;33;20115;-89
2022/12/19 00:46:34;;;;;;;58.63;26.40;;;;;;;1.30;56.15;100885.50;4321865;33;20087;-90
2022/12/19 00:49:00;;;;;;;65.68;26.83;;;;;;;1.35;55.85;100891.63;4335021;33;20507;-90
2022/12/19 00:51:27;;;;;;;65.25;26.90;;;;;;;1.36;55.73;100885.59;4335078;33;20158;-90
2022/12/19 00:53:54;;;;;;;65.82;27.85;;;;;;;1.36;55.75;100883.00;4335149;33;20472;-91
2022/12/19 00:56:22;;;;;;;68.28;27.23;;;;;;;1.31;55.87;100882.03;4321462;33;20104;-90
2022/12/19 00:58:48;;;;;;;;;;;;;;;1.32;55.89;100884.69;4334323;33;20119;-91
2022/12/19 01:01:13;;;;;;;59.25;23.55;;;;;;;1.34;55.70;100877.78;4335178;33;19998;-91
2022/12/19 01:03:39;;;;;;;58.22;24.87;;;;;;;1.31;55.52;100879.44;4334875;33;20083;-91
2022/12/19 01:06:05;;;;;;;63.40;26.60;;;;;;;1.30;55.47;100882.91;4334108;33;20106;-91
2022/12/19 01:08:31;;;;;;;63.85;27.73;;;;;;;1.20;55.50;100879.28;4333884;33;20088;-90
2022/12/19 01:10:56;;;;;;;61.95;25.80;;;;;;;1.26;55.67;100879.38;4321489;33;20128;-91
2022/12/19 01:13:22;;;;;;;64.60;26.33;;;;;;;1.27;55.92;100875.06;4334997;33;20464;-91
2022/12/19 01:15:48;;;;;;;64.10;26.42;;;;;;;0.83;56.69;100880.34;4321549;33;20114;-91
2022/12/19 01:18:13;;;;;;;66.60;25.77;;;;;;;0.77;57.47;100882.00;4334890;33;20088;-91
2022/12/19 01:20:40;;;;;;;69.70;26.87;;;;;;;1.15;56.87;100870.53;4333822;33;20108;-91
2022/12/19 01:23:07;;;;;;;69.57;27.40;;;;;;;1.26;56.97;100868.13;4321588;33;20122;-90
2022/12/19 01:25:34;;;;;;;71.93;25.98;;;;;;;1.40;57.18;100857.97;4334939;33;20103;-91
2022/12/19 01:27:59;;;;;;;61.75;24.20;;;;;;;1.43;57.28;100853.72;4334822;33;20151;-90
2022/12/19 01:30:25;;;;;;;62.00;25.60;;;;;;;1.49;57.45;100858.13;4321426;33;20175;-90
2022/12/19 01:32:51;;;;;;;64.60;24.27;;;;;;;1.55;57.68;100851.28;4321417;33;20095;-90
2022/12/19 01:35:16;;;;;;;64.53;24.02;;;;;;;1.61;57.71;100844.44;4321377;33;20436;-90
2022/12/19 01:37:42;;;;;;;69.10;26.60;;;;;;;1.69;57.67;100838.50;4334347;33;20369;-90
2022/12/19 01:40:09;;;;;;;73.25;25.10;;;;;;;1.69;57.52;100835.03;4334331;33;20444;-91
2022/12/19 01:42:36;;;;;;;62.08;24.83;;;;;;;1.73;57.61;100837.69;4321511;33;20133;-90
2022/12/19 01:45:04;;;;;;;57.47;22.45;;;;;;;1.76;57.74;100826.47;4333637;33;20409;-90
2022/12/19 01:47:31;;;;;;;64.90;23.58;;;;;;;1.63;57.94;100827.16;4334645;33;20095;-91
2022/12/19 01:49:57;;;;;;;77.20;23.92;;;;;;;1.75;57.59;100822.97;4333488;33;20157;-92
2022/12/19 01:52:22;;;;;;;73.70;25.48;;;;;;;1.65;57.73;100820.25;4321160;33;20099;-91
2022/12/19 01:54:48;;;;;;;70.78;23.70;;;;;;;1.82;57.54;100820.50;4334613;33;20115;-91
2022/12/19 01:57:14;;;;;;;109.93;25.60;;;;;;;1.86;57.90;100823.16;4334429;33;20106;-92
2022/12/19 01:59:43;;;;;;;71.68;24.73;;;;;;;1.66;58.34;100827.19;4321109;33;20511;-93
2022/12/19 02:02:12;;;;;;;68.40;24.98;;;;;;;1.86;58.49;100823.16;4321163;33;20174;-92
2022/12/19 02:04:38;;;;;;;122.53;26.73;;;;;;;1.94;58.61;100824.13;4321326;33;20472;-92
2022/12/19 02:07:04;;;;;;;81.28;25.12;;;;;;;1.88;58.73;100823.19;4321325;33;20096;-92
2022/12/19 02:09:30;;;;;;;80.65;25.60;;;;;;;1.85;59.11;100833.50;4321512;33;20119;-92
2022/12/19 02:11:57;;;;;;;73.82;23.48;;;;;;;1.97;59.13;100833.72;4334562;33;20101;-93
2022/12/19 02:14:23;;;;;;;74.37;24.83;;;;;;;2.07;58.88;100827.75;4321247;33;20111;-93
2022/12/19 02:17:03;;;;;;;72.57;24.30;;;;;;;2.07;58.90;100826.91;4336837;33;20084;-93
2022/12/19 02:19:44;;;;;;;71.85;26.62;;;;;;;1.87;59.02;100824.88;4339239;33;20165;-91
2022/12/19 02:22:17;;;;;;;77.35;25.08;;;;;;;1.83;58.99;100828.28;4325930;33;20589;-93
2022/12/19 02:25:07;;;;;;;96.47;25.80;;;;;;;1.91;58.86;100828.41;4325766;33;20091;-93
2022/12/19 02:28:19;;;;;;;87.35;26.80;;;;;;;1.90;58.69;100824.06;4339096;33;20597;-92
2022/12/19 02:31:07;;;;;;;75.25;25.83;;;;;;;1.24;60.08;100830.88;4325915;33;20099;-92
2022/12/19 02:33:56;;;;;;;90.10;26.15;;;;;;;1.59;59.66;100836.63;4337857;33;20191;-92
2022/12/19 02:36:33;;;;;;;93.12;26.55;;;;;;;1.26;60.19;100836.97;4325634;33;20644;-92
2022/12/19 02:39:04;;;;;;;82.60;24.67;;;;;;;1.60;59.86;100837.50;4339111;33;20162;-92
2022/12/19 02:41:41;;;;;;;75.15;24.87;;;;;;;1.36;60.24;100836.28;4337898;33;20146;-92
2022/12/19 02:44:14;;;;;;;75.47;25.92;;;;;;;0.64;62.66;100846.28;4338981;33;20114;-92
2022/12/19 02:46:42;;;;;;;79.97;25.95;;;;;;;1.25;60.83;100843.87;4325514;33;20114;-92
2022/12/19 02:49:08;;;;;;;81.35;26.77;;;;;;;1.37;60.77;100845.78;4337649;33;20399;-92
2022/12/19 02:51:33;;;;;;;75.25;25.52;;;;;;;0.84;62.21;100849.22;4325169;33;20467;-91
2022/12/19 02:53:59;;;;;;;76.32;24.85;;;;;;;1.14;61.61;100850.59;4338742;33;20112;-92
2022/12/19 02:56:49;;;;;;;79.75;26.45;;;;;;;1.56;60.37;100846.94;4325089;33;20121;-92
2022/12/19 02:59:30;;;;;;;77.00;25.58;;;;;;;1.70;59.87;100841.97;4325496;33;20095;-92
2022/12/19 03:02:01;;;;;;;82.68;27.00;;;;;;;1.54;60.22;100838.25;4338741;33;20083;-92
2022/12/19 03:04:48;;;;;;;78.00;25.30;;;;;;;1.76;59.63;100837.75;4338707;33;20100;-92
2022/12/19 03:07:40;;;;;;;75.12;24.92;;;;;;;1.93;59.17;100832.78;4338621;33;20115;-92
2022/12/19 03:10:34;;;;;;;89.07;26.80;;;;;;;2.05;59.07;100839.88;4338672;33;20138;-92
2022/12/19 03:13:06;;;;;;;71.50;24.60;;;;;;;2.06;58.92;100831.19;4338659;33;20142;-91
2022/12/19 03:15:32;;;;;;;71.72;22.58;;;;;;;2.13;58.74;100825.22;4338548;33;20106;-91
2022/12/19 03:17:58;;;;;;;76.97;25.20;;;;;;;2.24;58.67;100821.88;4338436;33;20111;-93
2022/12/19 03:20:50;;;;;;;77.43;26.00;;;;;;;2.21;58.82;100825.31;4338525;33;20106;-93
2022/12/19 03:23:16;;;;;;;78.70;24.75;;;;;;;2.27;58.62;100815.00;4338391;33;20154;-94
2022/12/19 03:25:45;;;;;;;72.07;24.30;;;;;;;2.35;58.53;100804.69;4338328;33;20111;-92
2022/12/19 03:28:19;;;;;;;74.82;24.80;;;;;;;2.43;58.32;100804.75;4323238;33;20084;-92
2022/12/19 03:30:45;;;;;;;76.12;25.80;;;;;;;2.47;58.07;100799.63;4335718;33;20076;-91
2022/12/19 03:33:12;;;;;;;71.05;26.00;;;;;;;2.53;57.85;100802.28;4335433;33;20099;-92
2022/12/19 03:35:38;;;;;;;83.12;25.20;;;;;;;2.54;57.78;100790.16;4322334;33;20142;-92
2022/12/19 03:38:05;;;;;;;73.03;26.12;;;;;;;2.58;57.75;100791.06;4322288;33;20164;-92
2022/12/19 03:40:32;;;;;;;76.00;25.67;;;;;;;2.61;57.76;100796.28;4309788;33;20467;-91
2022/12/19 03:43:09;;;;;;;68.50;23.25;;;;;;;2.64;57.75;100791.97;4322229;33;20108;-96
2022/12/19 03:46:01;;;;;;;82.30;27.17;;;;;;;2.70;57.58;100789.44;4334454;33;20158;-96
2022/12/19 03:48:49;;;;;;;70.28;25.83;;;;;;;2.72;57.70;100790.34;4322328;33;20094;-96
2022/12/19 03:51:24;;;;;;;75.97;25.03;;;;;;;2.73;57.69;100799.03;4335498;33;20088;-96
2022/12/19 03:53:59;;;;;;;72.22;23.48;;;;;;;2.81;57.43;100802.56;4322153;33;20582;-87
2022/12/19 03:56:41;;;;;;;72.82;25.05;;;;;;;2.70;57.41;100805.03;4335389;33;20131;-87
2022/12/19 03:59:15;;;;;;;70.25;23.90;;;;;;;2.78;57.50;100805.12;4335537;33;20415;-87
2022/12/19 04:01:41;;;;;;;78.55;26.42;;;;;;;2.84;57.41;100804.31;4335355;33;20418;-87
2022/12/19 04:04:10;;;;;;;80.95;25.45;;;;;;;2.88;57.33;100812.19;4322019;33;20126;-92
2022/12/19 04:06:37;;;;;;;77.85;25.08;;;;;;;2.90;57.33;100802.66;4334308;33;20107;-89
2022/12/19 04:09:02;;;;;;;75.53;24.63;;;;;;;2.91;57.33;100801.78;4333983;33;20126;-89
2022/12/19 04:11:34;;;;;;;80.43;27.23;;;;;;;2.94;57.31;100795.75;4335270;33;20107;-90
2022/12/19 04:14:03;;;;;;;74.82;25.85;;;;;;;2.96;57.35;100794.03;4335411;33;20103;-90
2022/12/19 04:16:43;;;;;;;80.07;27.40;;;;;;;2.98;57.37;100799.25;4321965;33;20100;-90
2022/12/19 04:19:22;;;;;;;80.25;25.60;;;;;;;2.99;57.40;100798.38;4335321;33;20088;-89
2022/12/19 04:21:52;;;;;;;81.60;27.20;;;;;;;3.02;57.39;100799.28;4321896;33;20386;-90
2022/12/19 04:24:26;;;;;;;78.45;25.52;;;;;;;3.02;57.48;100801.03;4309629;33;20516;-89
2022/12/19 04:26:53;;;;;;;81.22;26.62;;;;;;;3.02;57.64;100811.44;4334443;33;20800;-90
2022/12/19 04:29:19;;;;;;;75.35;26.05;;;;;;;3.08;57.72;100806.28;4316916;33;20380;-90
2022/12/19 04:31:45;;;;;;;84.15;28.48;;;;;;;3.01;57.84;100807.06;4310746;33;20084;-89
2022/12/19 04:34:10;;;;;;;72.85;26.15;;;;;;;3.10;57.77;100809.75;4307336;33;20108;-90
2022/12/19 04:36:35;;;;;;;77.07;25.55;;;;;;;3.11;57.79;100815.00;4319399;33;20130;-90
2022/12/19 04:39:01;;;;;;;80.38;26.77;;;;;;;3.15;57.83;100811.53;4319119;33;20126;-90
2022/12/19 04:41:26;;;;;;;87.47;25.98;;;;;;;3.22;57.56;100809.84;4318526;33;20176;-90
2022/12/19 04:43:52;;;;;;;75.10;26.33;;;;;;;3.23;57.33;100813.34;4320567;33;20429;-91
2022/12/19 04:46:17;;;;;;;80.30;26.48;;;;;;;3.08;57.51;100811.47;4320473;33;20107;-92
2022/12/19 04:48:43;;;;;;;74.68;25.83;;;;;;;3.15;57.39;100802.87;4307044;33;20150;-91
2022/12/19 04:51:08;;;;;;;78.75;24.52;;;;;;;3.17;57.32;100801.16;4320384;33;20087;-92
2022/12/19 04:53:34;;;;;;;77.00;26.27;;;;;;;3.13;57.42;100802.84;4320351;33;20407;-91
2022/12/19 04:56:04;;;;;;;85.45;26.60;;;;;;;3.14;57.48;100803.72;4319231;33;20104;-91
2022/12/19 04:58:29;;;;;;;78.90;26.27;;;;;;;3.15;57.47;100806.34;4320438;33;20100;-92
2022/12/19 05:01:02;;;;;;;74.72;26.48;;;;;;;3.16;57.50;100812.41;4319411;33;20096;-92
2022/12/19 05:03:28;;;;;;;77.70;26.10;;;;;;;3.21;57.49;100804.66;4307188;33;20120;-89
2022/12/19 05:06:02;;;;;;;75.53;25.10;;;;;;;3.20;57.55;100800.28;4320396;33;20491;-91
2022/12/19 05:08:28;;;;;;;71.65;25.17;;;;;;;3.23;57.57;100808.12;4320509;33;20092;-91
2022/12/19 05:10:58;;;;;;;73.97;25.95;;;;;;;3.27;57.51;100813.37;4306949;33;20429;-91
2022/12/19 05:13:23;;;;;;;72.43;25.30;;;;;;;3.29;57.49;100814.25;4320392;33;20163;-88
2022/12/19 05:16:00;;;;;;;75.65;25.80;;;;;;;3.31;57.52;100814.28;4307014;33;20373;-88
2022/12/19 05:18:25;;;;;;;78.35;25.83;;;;;;;3.27;57.63;100815.12;4307040;33;20095;-91
2022/12/19 05:20:51;;;;;;;77.35;25.75;;;;;;;3.31;57.67;100817.75;4320175;33;20139;-90
2022/12/19 05:23:17;;;;;;;83.80;25.75;;;;;;;3.32;57.56;100805.59;4321285;33;20165;-91
2022/12/19 05:25:42;;;;;;;72.37;24.00;;;;;;;3.34;57.64;100817.78;4334738;33;20083;-94
2022/12/19 05:28:07;;;;;;;75.72;26.20;;;;;;;3.38;57.59;100796.94;4321840;33;20155;-93
2022/12/19 05:30:33;;;;;;;72.00;25.58;;;;;;;3.40;57.61;100803.03;4334832;33;20107;-89
2022/12/19 05:32:58;;;;;;;76.47;25.58;;;;;;;3.42;57.58;100803.91;4334872;33;20118;-89
2022/12/19 05:35:23;;;;;;;74.05;24.73;;;;;;;3.42;57.53;100789.19;4334795;33;20417;-89
2022/12/19 05:37:49;;;;;;;76.25;24.80;;;;;;;3.45;57.53;100785.72;4334989;33;20110;-91
2022/12/19 05:40:14;;;;;;;79.62;26.60;;;;;;;3.47;57.52;100783.97;4335096;33;20334;-92
2022/12/19 05:42:40;;;;;;;78.78;25.92;;;;;;;3.52;57.41;100788.38;4335071;33;20122;-91
2022/12/19 05:45:06;;;;;;;72.53;25.33;;;;;;;3.50;57.43;100804.88;4335052;33;20459;-93
2022/12/19 05:47:31;;;;;;;68.05;24.48;;;;;;;3.50;57.66;100802.25;4334877;33;20087;-93
2022/12/19 05:49:57;;;;;;;76.62;24.83;;;;;;;3.51;57.69;100801.38;4334857;33;20499;-90
2022/12/19 05:52:23;;;;;;;73.35;24.80;;;;;;;3.53;57.93;100789.22;4334232;33;20085;-91
2022/12/19 05:54:49;;;;;;;66.53;25.75;;;;;;;3.56;57.95;100789.25;4334838;33;20088;-90
2022/12/19 05:57:15;;;;;;;72.60;24.05;;;;;;;3.58;57.98;100792.75;4334681;33;20151;-90
2022/12/19 05:59:40;;;;;;;69.00;25.30;;;;;;;3.61;58.27;100800.59;4334713;33;20139;-92
2022/12/19 06:02:06;;;;;;;77.03;27.05;;;;;;;3.62;58.27;100791.03;4334719;33;20429;-90
2022/12/19 06:04:31;;;;;;;74.30;25.85;;;;;;;3.65;58.20;100786.72;4334755;33;20432;-89
2022/12/19 06:06:57;;;;;;;72.25;25.05;;;;;;;3.63;58.14;100787.56;4334722;33;20464;-90
2022/12/19 06:09:22;;;;;;;78.82;25.95;;;;;;;3.63;58.04;100798.88;4334681;33;20374;-90
2022/12/19 06:11:48;;;;;;;79.20;25.77;;;;;;;3.63;57.94;100798.88;4321137;33;20108;-91
2022/12/19 06:14:13;;;;;;;73.10;24.83;;;;;;;3.64;57.91;100802.34;4334657;33;20118;-89
2022/12/19 06:16:39;;;;;;;74.90;25.42;;;;;;;3.62;57.90;100807.53;4321169;33;20087;-89
2022/12/19 06:19:04;;;;;;;73.05;25.95;;;;;;;3.66;57.95;100808.44;4321193;33;20451;-90
2022/12/19 06:21:30;;;;;;;72.62;24.92;;;;;;;3.66;57.97;100808.44;4334162;33;20104;-89
2022/12/19 06:23:55;;;;;;;66.03;26.45;;;;;;;3.67;58.11;100810.16;4334403;33;20096;-91
2022/12/19 06:26:21;;;;;;;81.63;26.65;;;;;;;3.68;58.29;100810.16;4334186;33;20091;-91
2022/12/19 06:28:47;;;;;;;73.28;25.85;;;;;;;3.69;58.51;100808.44;4334176;33;20072;-90
2022/12/19 06:31:13;;;;;;;75.78;26.40;;;;;;;3.69;58.61;100803.22;4334252;33;20096;-92
2022/12/19 06:33:38;;;;;;;71.55;25.27;;;;;;;3.70;58.80;100807.59;4308436;33;20162;-91
2022/12/19 06:36:06;;;;;;;71.25;25.65;;;;;;;3.62;58.88;100810.13;4333927;33;20143;-92
2022/12/19 06:38:33;;;;;;;74.15;25.50;;;;;;;3.65;59.17;100812.78;4320987;33;20417;-84
2022/12/19 06:43:43;;;;;;;69.87;25.67;;;;;;;3.67;58.91;100824.09;4334308;33;20122;-92
2022/12/19 06:46:09;;;;;;;73.50;25.73;;;;;;;3.68;58.86;100828.41;4333950;33;20377;-85
2022/12/19 06:48:34;;;;;;;73.85;25.70;;;;;;;3.65;58.88;100812.78;4333953;33;20083;-86
2022/12/19 06:51:00;;;;;;;77.85;25.40;;;;;;;3.63;58.67;100811.00;4332628;33;20099;-85
2022/12/19 06:53:25;;;;;;;79.95;24.52;;;;;;;3.61;58.73;100812.72;4334162;33;20106;-94
2022/12/19 06:55:52;;;;;;;77.47;26.17;;;;;;;3.59;58.91;100812.72;4332700;33;20395;-86
2022/12/19 06:58:18;;;;;;;74.72;26.80;;;;;;;3.65;58.70;100801.47;4321131;33;20461;-85
2022/12/19 07:00:43;;;;;;;74.07;24.83;;;;;;;3.62;58.83;100809.28;4333700;33;20147;-87
2022/12/19 07:03:11;;;;;;;72.82;26.67;;;;;;;3.64;59.15;100813.63;4333789;33;20088;-87
2022/12/19 07:05:37;;;;;;;80.38;28.17;;;;;;;3.63;59.25;100816.22;4322594;33;20088;-87
2022/12/19 07:08:03;;;;;;;79.70;27.10;;;;;;;3.29;59.66;100823.81;4322442;33;20092;-87
2022/12/19 07:10:29;;;;;;;70.03;25.35;;;;;;;3.57;59.64;100824.00;4335828;33;20119;-88
2022/12/19 07:12:54;;;;;;;71.85;25.58;;;;;;;3.58;59.73;100815.34;4335870;33;20112;-89
2022/12/19 07:15:19;;;;;;;66.20;22.62;;;;;;;3.56;59.72;100825.75;4335757;33;20457;-85
2022/12/19 07:17:45;;;;;;;72.15;25.83;;;;;;;3.61;59.75;100833.59;4334594;33;20096;-86
2022/12/19 07:20:11;;;;;;;62.45;23.10;;;;;;;3.60;59.88;100832.72;4335864;33;20369;-90
2022/12/19 07:22:38;;;;;;;64.57;23.52;;;;;;;3.67;59.53;100833.63;4322616;33;20626;-90
2022/12/19 07:25:04;;;;;;;63.55;23.23;;;;;;;3.67;59.28;100824.09;4321941;33;20092;-90
2022/12/19 07:27:30;;;;;;;74.93;24.65;;;;;;;3.66;59.07;100819.72;4335789;33;20083;-91
2022/12/19 07:29:55;;;;;;;61.28;23.58;;;;;;;3.59;58.97;100817.94;4322447;33;20175;-90
2022/12/19 07:32:21;;;;;;;69.82;24.08;;;;;;;3.63;58.75;100824.94;4335606;33;20084;-90
2022/12/19 07:34:46;;;;;;;68.18;23.05;;;;;;;3.59;58.69;100822.28;4322417;33;20083;-90
2022/12/19 07:37:12;;;;;;;63.30;22.30;;;;;;;3.60;58.78;100818.81;4335799;33;20139;-91
2022/12/19 07:39:37;;;;;;;64.47;24.00;;;;;;;3.54;58.94;100823.13;4322484;33;20112;-90
2022/12/19 07:42:03;;;;;;;60.05;22.95;;;;;;;3.57;58.84;100818.78;4335535;33;20087;-90
2022/12/19 07:44:28;;;;;;;64.35;23.38;;;;;;;3.45;58.95;100819.59;4322496;33;20091;-91
2022/12/19 07:46:54;;;;;;;62.25;22.98;;;;;;;3.48;59.11;100817.88;4335736;33;20138;-90
2022/12/19 07:49:19;;;;;;;60.55;23.00;;;;;;;3.47;59.19;100816.13;4322290;33;20112;-90
2022/12/19 07:51:45;;;;;;;60.25;21.90;;;;;;;3.50;59.10;100818.75;4335823;33;20080;-93
2022/12/19 07:54:10;;;;;;;54.60;20.83;;;;;;;3.44;58.04;100820.44;4323363;33;20091;-90
2022/12/19 07:56:35;;;;;;;53.85;19.85;;;;;;;3.50;57.36;100826.56;4335526;33;20119;-86
2022/12/19 07:59:01;;;;;;;54.20;20.70;;;;;;;3.52;56.93;100829.19;4335599;33;20457;-88
2022/12/19 08:01:26;;;;;;;50.30;18.83;;;;;;;3.53;56.39;100852.66;4335728;33;20099;-88
2022/12/19 08:03:56;;;;;;;45.75;18.00;;;;;;;3.34;57.07;100853.34;4335721;33;20142;-88
2022/12/19 08:06:22;;;;;;;55.92;20.33;;;;;;;3.48;56.67;100840.47;4321970;33;20436;-88
2022/12/19 08:08:47;;;;;;;56.33;20.50;;;;;;;3.57;56.32;100837.91;4322090;33;20428;-89
2022/12/19 08:11:25;;;;;;;59.88;21.05;;;;;;;3.59;56.53;100837.91;4335420;33;20084;-90
2022/12/19 08:13:55;;;;;;;55.85;19.25;;;;;;;3.66;56.45;100847.53;4322304;33;20146;-90
2022/12/19 08:16:20;;;;;;;62.00;21.65;;;;;;;3.69;56.54;100853.63;4322167;33;20150;-89
2022/12/19 08:18:46;;;;;;;54.05;20.40;;;;;;;3.77;56.39;100855.41;4335450;33;20384;-89
2022/12/19 08:21:12;;;;;;;55.95;21.35;;;;;;;3.80;56.23;100852.81;4335528;33;20092;-88
2022/12/19 08:23:38;;;;;;;54.10;19.98;;;;;;;3.82;56.17;100856.31;4335550;33;20118;-89
2022/12/19 08:26:09;;;;;;;56.13;20.70;;;;;;;3.89;55.98;100866.78;4335515;33;20075;-90
2022/12/19 08:28:35;;;;;;;53.85;22.02;;;;;;;3.93;55.99;100858.13;4334368;33;20167;-91
2022/12/19 08:31:13;;;;;;;61.55;20.65;;;;;;;4.01;56.09;100854.69;4322054;33;20100;-90
2022/12/19 08:33:39;;;;;;;49.40;19.42;;;;;;;4.10;55.60;100857.34;4321912;33;20174;-84
2022/12/19 08:36:10;;;;;;;55.05;19.25;;;;;;;4.10;54.89;100853.00;4335034;33;20084;-90
2022/12/19 08:38:36;;;;;;;51.35;19.08;;;;;;;4.05;54.27;100849.50;4334365;33;20791;-90
2022/12/19 08:41:02;;;;;;;44.58;18.30;;;;;;;4.01;54.02;100844.25;4334673;33;20113;-91
2022/12/19 08:43:27;;;;;;;46.58;17.58;;;;;;;4.09;53.65;100839.94;4320608;33;20095;-90
2022/12/19 08:45:53;;;;;;;48.40;17.92;;;;;;;4.08;53.24;100825.19;4335121;33;20114;-91
2022/12/19 08:48:19;;;;;;;46.35;18.45;;;;;;;4.09;53.05;100835.59;4335288;33;20095;-91
2022/12/19 08:50:56;;;;;;;43.28;15.55;;;;;;;3.33;54.37;100836.00;4335387;33;20087;-90
2022/12/19 08:53:22;;;;;;;42.03;15.55;;;;;;;3.87;52.23;100834.63;4335271;33;20106;-90
2022/12/19 08:55:56;;;;;;;41.40;14.63;;;;;;;3.91;52.11;100833.78;4335213;33;20401;-91
2022/12/19 08:58:26;;;;;;;42.60;16.48;;;;;;;3.96;51.68;100833.81;4321803;33;20129;-90
2022/12/19 09:00:54;;;;;;;41.20;16.65;;;;;;;4.09;51.15;100835.59;4335054;33;20114;-89
2022/12/19 09:03:21;;;;;;;42.92;15.38;;;;;;;4.17;51.14;100827.81;4321915;33;20100;-91
2022/12/19 09:05:56;;;;;;;40.70;15.57;;;;;;;4.25;51.08;100826.13;4335116;33;20080;-91
2022/12/19 09:08:22;;;;;;;36.45;13.10;;;;;;;4.36;50.90;100828.75;4335134;33;20361;-90
2022/12/19 09:10:47;;;;;;;34.88;13.23;;;;;;;4.28;49.63;100817.44;4335073;33;20129;-90
2022/12/19 09:13:13;;;;;;;40.28;13.85;;;;;;;4.37;49.29;100812.25;4334921;33;20084;-91
2022/12/19 09:15:39;;;;;;;31.87;13.00;;;;;;;4.38;48.89;100813.09;4334874;33;20084;-91
2022/12/19 09:18:05;;;;;;;35.80;13.35;;;;;;;4.21;49.71;100820.88;4334879;33;20123;-91
2022/12/19 09:20:30;;;;;;;36.20;13.10;;;;;;;4.31;49.68;100818.31;4321561;33;20385;-91
2022/12/19 09:22:56;;;;;;;34.03;13.13;;;;;;;4.35;49.37;100827.03;4334792;33;20380;-91
2022/12/19 09:25:21;;;;;;;34.42;13.60;;;;;;;4.30;49.23;100834.81;4334513;33;20084;-90
2022/12/19 09:27:47;;;;;;;38.78;14.68;;;;;;;4.10;49.61;100846.91;4334289;33;20475;-90
2022/12/19 09:30:12;;;;;;;37.97;14.95;;;;;;;4.30;49.63;100852.22;4334916;33;20088;-90
2022/12/19 09:32:38;;;;;;;38.20;13.65;;;;;;;4.42;49.69;100852.25;4321440;33;20143;-91
2022/12/19 09:35:04;;;;;;;42.92;14.60;;;;;;;4.53;49.29;100847.09;4334723;33;20137;-91
2022/12/19 09:37:29;;;;;;;36.47;14.60;;;;;;;4.57;48.90;100833.16;4334872;33;20104;-90
2022/12/19 09:39:55;;;;;;;37.95;14.82;;;;;;;4.20;49.74;100826.97;4333698;33;20095;-91
2022/12/19 09:42:29;;;;;;;35.03;15.13;;;;;;;4.32;49.46;100819.19;4321323;33;20092;-90
2022/12/19 09:45:21;;;;;;;41.08;15.15;;;;;;;4.42;49.45;100814.84;4334907;33;20149;-90
2022/12/19 09:47:48;;;;;;;37.50;14.60;;;;;;;4.17;49.87;100809.53;4321425;33;20083;-90
2022/12/19 09:50:35;;;;;;;37.03;14.45;;;;;;;4.27;49.77;100808.72;4334729;33;20095;-90
2022/12/19 09:53:24;;;;;;;40.85;15.27;;;;;;;4.35;49.36;100803.53;4321343;33;20100;-90
2022/12/19 09:55:51;;;;;;;38.30;13.70;;;;;;;4.16;49.81;100810.44;4334756;33;20072;-91
2022/12/19 09:58:23;;;;;;;38.28;14.68;;;;;;;4.47;49.09;100803.56;4321138;33;20100;-91
2022/12/19 10:00:58;;;;;;;34.30;13.60;;;;;;;4.53;48.87;100797.50;4334607;33;20092;-90
2022/12/19 10:03:28;;;;;;;40.85;14.75;;;;;;;4.46;48.61;100796.63;4333513;33;20079;-90
2022/12/19 10:05:58;;;;;;;36.03;14.38;;;;;;;4.48;48.36;100797.50;4334525;33;20455;-90
2022/12/19 10:08:30;;;;;;;37.33;14.63;;;;;;;4.44;48.54;100790.53;4321228;33;20112;-90
2022/12/19 10:11:13;;;;;;;34.17;13.98;;;;;;;4.53;48.45;100777.47;4334644;33;20389;-90
2022/12/19 10:13:45;;;;;;;38.40;14.27;;;;;;;4.56;48.36;100776.63;4334452;33;20095;-91
2022/12/19 10:16:38;;;;;;;37.05;13.68;;;;;;;4.57;48.21;100777.50;4334621;33;20083;-91
2022/12/19 10:19:05;;;;;;;35.03;13.80;;;;;;;3.67;49.99;100785.00;4334481;33;20092;-90
2022/12/19 10:21:36;;;;;;;38.20;14.87;;;;;;;4.10;49.67;100793.00;4333342;33;20465;-91
2022/12/19 10:24:10;;;;;;;34.50;13.48;;;;;;;4.32;49.20;100783.50;4334433;33;20480;-91
2022/12/19 10:26:43;;;;;;;35.33;14.55;;;;;;;4.40;48.97;100782.66;4334412;33;20080;-90
2022/12/19 10:29:11;;;;;;;34.25;12.93;;;;;;;4.49;48.65;100785.31;4334251;33;20176;-90
2022/12/19 10:31:48;;;;;;;38.83;14.65;;;;;;;4.63;48.13;100787.94;4334332;33;20591;-90
2022/12/19 10:34:29;;;;;;;34.35;13.15;;;;;;;4.67;47.96;100774.88;4334209;33;20103;-90
2022/12/19 10:36:57;;;;;;;35.15;14.40;;;;;;;4.73;47.92;100779.25;4321094;33;20104;-90
2022/12/19 10:39:35;;;;;;;34.65;12.70;;;;;;;4.79;47.95;100766.22;4322760;33;20681;-90
2022/12/19 10:42:35;;;;;;;33.80;14.10;;;;;;;4.86;47.56;100756.63;4322772;33;20411;-90
2022/12/19 10:45:07;;;;;;;31.77;12.40;;;;;;;4.96;47.55;100754.91;4304481;33;20151;-90
2022/12/19 10:47:33;;;;;;;35.97;14.45;;;;;;;5.09;47.45;100743.59;4292543;33;20110;-90
2022/12/19 10:49:58;;;;;;;37.65;14.52;;;;;;;5.31;47.14;100747.03;4292585;33;20128;-90
2022/12/19 10:52:51;;;;;;;36.10;14.40;;;;;;;5.44;47.01;100753.97;4304426;33;20179;-90
2022/12/19 10:55:35;;;;;;;35.63;14.32;;;;;;;5.27;47.04;100753.13;4302625;33;20104;-91
2022/12/19 10:58:19;;;;;;;37.22;15.05;;;;;;;5.21;46.87;100747.91;4304453;33;20107;-91
2022/12/19 11:01:05;;;;;;;38.08;14.98;;;;;;;5.28;46.99;100750.53;4304551;33;20156;-91
2022/12/19 11:03:32;;;;;;;37.20;14.30;;;;;;;5.44;46.79;100750.50;4301809;33;20245;-90
2022/12/19 11:05:59;;;;;;;34.42;14.00;;;;;;;4.12;49.28;100746.94;4292673;33;20120;-91
2022/12/19 11:08:26;;;;;;;36.03;12.98;;;;;;;4.66;48.02;100739.22;4304714;33;20112;-90
2022/12/19 11:11:09;;;;;;;37.78;13.88;;;;;;;4.83;47.87;100743.56;4304682;33;20120;-91
2022/12/19 11:13:34;;;;;;;36.20;14.65;;;;;;;4.53;47.89;100733.09;4304442;33;20154;-91
2022/12/19 11:16:05;;;;;;;35.25;13.82;;;;;;;4.99;47.49;100741.84;4304346;33;20263;-91
2022/12/19 11:18:42;;;;;;;37.92;13.77;;;;;;;4.79;47.65;100745.34;4304367;33;20185;-90
2022/12/19 11:21:18;;;;;;;37.35;13.32;;;;;;;4.71;47.87;100744.44;4312645;33;20453;-91
2022/12/19 11:23:58;;;;;;;33.70;13.48;;;;;;;4.89;47.28;100740.97;4335917;33;20118;-90
2022/12/19 11:26:39;;;;;;;34.83;13.25;;;;;;;4.87;47.61;100745.34;4335570;33;20091;-90
2022/12/19 11:29:46;;;;;;;34.65;13.35;;;;;;;4.92;47.47;100731.41;4335681;33;20368;-91